Flight Track Log - Related Links

Times and Time Zones

All times are in EST time to prevent confusion due to time zone crossing. See the N4222A flight status page for this flight to view local times or setup timezone preferences in your user account.

Time Position Orientation Groundspeed Altitude Reporting Facility
EST Latitude Longitude Course Direction KTS MPH feet Rate Location/Type
Fri 01:10:32 PM 35.1000 -89.9500 39° Northeast 183 211 2,400  Level KMEM
Fri 01:11:38 PM 35.1167 -89.8833 73° East 178 205 5,000 2,182 Climbing KMEM
Fri 01:12:22 PM 35.1225 -89.8511 78° East 177 204 6,400 1,132 Climbing Memphis Center
Fri 01:13:24 PM 35.1353 -89.7836 77° East 211 243 7,000 532 Climbing Memphis Center
Fri 01:14:26 PM 35.1547 -89.6992 74° East 244 281 7,500 1,258 Climbing Memphis Center
Fri 01:15:28 PM 35.1642 -89.6161 82° East 247 284 9,600 1,887 Climbing Memphis Center
Fri 01:16:30 PM 35.1761 -89.5450 78° East 221 254 11,400 1,645 Climbing Memphis Center
Fri 01:17:32 PM 35.1861 -89.4764 80° East 208 239 13,000 1,452 Climbing Memphis Center
Fri 01:18:34 PM 35.1953 -89.4069 81° East 205 236 14,400 1,403 Climbing Memphis Center
Fri 01:19:36 PM 35.2097 -89.3386 75° East 205 236 15,900 1,597 Climbing Memphis Center
Fri 01:20:38 PM 35.2239 -89.2556 78° East 209 241 17,700 1,645 Climbing Memphis Center
Fri 01:21:40 PM 35.2353 -89.1850 79° East 211 243 19,300 1,452 Climbing Memphis Center
Fri 01:22:42 PM 35.2486 -89.1156 77° East 208 239 20,700 1,306 Climbing Memphis Center
Fri 01:23:44 PM 35.2589 -89.0458 80° East 208 239 22,000 1,008 Climbing Memphis Center
Fri 01:24:47 PM 35.2714 -88.9742 78° East 211 243 22,800 480 Climbing Memphis Center
Fri 01:25:49 PM 35.2856 -88.8933 78° East 232 267 23,000 97 Climbing Memphis Center
Fri 01:26:51 PM 35.3014 -88.8008 78° East 265 305 23,000  Level Memphis Center
Fri 01:27:53 PM 35.3194 -88.6847 79° East 289 333 23,000  Level Memphis Center
Fri 01:28:55 PM 35.3383 -88.5875 77° East 291 335 23,000  Level Memphis Center
Fri 01:29:57 PM 35.3544 -88.4875 79° East 294 338 23,000  Level Memphis Center
Fri 01:30:59 PM 35.3739 -88.3842 77° East 296 341 23,000  Level Memphis Center
Fri 01:32:01 PM 35.3892 -88.2844 79° East 298 343 23,000  Level Memphis Center
Fri 01:33:03 PM 35.4067 -88.1794 78° East 298 343 23,000  Level Memphis Center
Fri 01:34:05 PM 35.4217 -88.0908 78° East 297 342 23,000  Level Memphis Center
Fri 01:35:07 PM 35.4414 -87.9739 78° East 297 342 23,000  Level Memphis Center
Fri 01:36:09 PM 35.4572 -87.8731 79° East 297 342 23,000  Level Memphis Center
Fri 01:37:11 PM 35.4736 -87.7728 79° East 299 344 23,000  Level Memphis Center
Fri 01:38:13 PM 35.4906 -87.6725 78° East 298 343 23,000  Level Memphis Center
Fri 01:39:15 PM 35.5058 -87.5708 80° East 300 345 23,000  Level Memphis Center
Fri 01:40:17 PM 35.5239 -87.4703 78° East 299 344 23,000  Level Memphis Center
Fri 01:41:20 PM 35.5425 -87.3517 79° East 301 346 23,000  Level Memphis Center
Fri 01:42:22 PM 35.5583 -87.2489 79° East 304 350 23,000  Level Memphis Center
Fri 01:43:24 PM 35.5742 -87.1461 79° East 304 350 23,000  Level Memphis Center
Fri 01:44:26 PM 35.5900 -87.0433 79° East 304 350 23,000  Level Memphis Center
Fri 01:45:28 PM 35.6056 -86.9397 80° East 305 351 23,000  Level Memphis Center
Fri 01:46:30 PM 35.6222 -86.8369 79° East 306 352 23,000  Level Memphis Center
Fri 01:47:32 PM 35.6378 -86.7333 80° East 305 351 23,000  Level Memphis Center
Fri 01:48:34 PM 35.6558 -86.6119 80° East 307 353 23,000  Level Memphis Center
Fri 01:49:36 PM 35.6719 -86.5081 79° East 307 353 23,000  Level Memphis Center
Fri 01:50:38 PM 35.6869 -86.4028 80° East 309 356 23,000  Level Memphis Center
Fri 01:51:40 PM 35.7028 -86.2983 79° East 310 357 23,000  Level Memphis Center
Fri 01:52:42 PM 35.7192 -86.1939 79° East 309 356 23,000  Level Memphis Center
Fri 01:53:44 PM 35.7350 -86.0878 80° East 312 359 23,000  Level Memphis Center
Fri 01:54:46 PM 35.7494 -85.9828 80° East 310 357 23,000  Level Memphis Center
Fri 01:55:48 PM 35.7678 -85.8597 80° East 311 358 23,000  Level Memphis Center
Fri 01:56:50 PM 35.7817 -85.7617 80° East 310 357 23,000  Level Memphis Center
Fri 01:57:52 PM 35.7969 -85.6561 80° East 311 358 23,000  Level Memphis Center
Fri 01:58:54 PM 35.8125 -85.5500 80° East 314 361 23,000  Level Memphis Center
Fri 01:59:56 PM 35.8306 -85.4231 80° East 314 361 23,000  Level Memphis Center
Fri 02:00:58 PM 35.8458 -85.3156 80° East 316 364 23,000  Level Memphis Center
Fri 02:02:00 PM 35.8611 -85.2067 80° East 321 369 23,000  Level Memphis Center
Fri 02:03:02 PM 35.8764 -85.0967 80° East 324 373 23,000  Level Memphis Center
Fri 02:04:15 PM 35.8942 -84.9667 80° East 314 361 23,000  Level Atlanta Center
Fri 02:05:15 PM 35.9117 -84.8411 80° East 319 367 23,000  Level Atlanta Center
Fri 02:06:15 PM 35.9250 -84.7336 81° East 319 367 23,000  Level Atlanta Center
Fri 02:07:15 PM 35.9422 -84.6183 80° East 324 373 23,000  Level Atlanta Center
Fri 02:08:15 PM 35.9572 -84.5056 81° East 329 379 23,000  Level Atlanta Center
Fri 02:09:15 PM 35.9722 -84.3903 81° East 335 386 23,000  Level Atlanta Center
Fri 02:10:15 PM 35.9872 -84.2747 81° East 335 386 23,000  Level Atlanta Center
Fri 02:11:15 PM 36.0019 -84.1594 81° East 335 386 23,000  Level Atlanta Center
Fri 02:12:15 PM 36.0186 -84.0389 80° East 335 386 23,000 50 Level Atlanta Center
Fri 02:13:15 PM 36.0333 -83.9206 81° East 340 391 23,100  Climbing Atlanta Center
Fri 02:14:15 PM 36.0475 -83.7972 82° East 353 406 23,000 -50 Descending Atlanta Center
Fri 02:15:15 PM 36.0639 -83.6767 80° East 353 406 23,000  Level Atlanta Center
Fri 02:16:15 PM 36.0803 -83.5531 81° East 353 406 23,000  Level Atlanta Center
Fri 02:17:15 PM 36.0944 -83.4297 82° East 353 406 23,000  Level Atlanta Center
Fri 02:18:15 PM 36.1103 -83.3061 81° East 353 406 23,000  Level Atlanta Center
Fri 02:19:15 PM 36.1261 -83.1828 81° East 353 406 23,000  Level Atlanta Center
Fri 02:20:15 PM 36.1378 -83.0617 83° East 353 406 23,000  Level Atlanta Center
Fri 02:21:15 PM 36.1556 -82.9406 80° East 353 406 23,000  Level Atlanta Center
Fri 02:22:15 PM 36.1689 -82.8197 82° East 353 406 23,000  Level Atlanta Center
Fri 02:23:15 PM 36.1822 -82.6986 82° East 353 406 23,000  Level Atlanta Center
Fri 02:24:15 PM 36.1978 -82.5772 81° East 353 406 23,000  Level Atlanta Center
Fri 02:25:15 PM 36.2108 -82.4561 82° East 353 406 23,000  Level Atlanta Center
Fri 02:26:15 PM 36.2258 -82.3350 81° East 353 406 23,000  Level Atlanta Center
Fri 02:27:15 PM 36.2389 -82.2239 82° East 353 406 23,000  Level Atlanta Center
Fri 02:28:15 PM 36.2533 -82.0897 82° East 358 412 23,000  Level Atlanta Center
Fri 02:29:15 PM 36.2661 -81.9708 82° East 358 412 23,000  Level Atlanta Center
Fri 02:30:15 PM 36.2808 -81.8597 81° East 353 406 23,000  Level Atlanta Center
Fri 02:31:15 PM 36.2933 -81.7411 83° East 353 406 23,000  Level Atlanta Center
Fri 02:32:15 PM 36.3075 -81.6067 83° East 353 406 23,000  Level Atlanta Center
Fri 02:33:15 PM 36.3197 -81.4903 83° East 347 399 23,000  Level Atlanta Center
Fri 02:34:15 PM 36.3339 -81.3739 81° East 347 399 23,000  Level Atlanta Center
Fri 02:35:15 PM 36.3436 -81.2525 84° East 352 405 23,000  Level Atlanta Center
Fri 02:36:15 PM 36.3556 -81.1333 83° East 352 405 23,000  Level Atlanta Center
Fri 02:37:15 PM 36.3694 -81.0142 82° East 352 405 23,000  Level Atlanta Center
Fri 02:38:15 PM 36.3831 -80.8950 82° East 352 405 23,000  Level Atlanta Center
Fri 02:39:15 PM 36.3925 -80.7786 84° East 352 405 23,000  Level Atlanta Center
Fri 02:40:15 PM 36.4042 -80.6672 83° East 346 398 23,000  Level Atlanta Center
Fri 02:41:15 PM 36.4133 -80.5533 84° East 336 387 23,000  Level Atlanta Center
Fri 02:42:15 PM 36.4247 -80.4367 83° East 336 387 23,000  Level Atlanta Center
Fri 02:44:01 PM 36.4458 -80.2319 83° East 342 394 23,000  Level Washington Center
Fri 02:45:01 PM 36.4586 -80.1192 82° East 342 394 23,000  Level Washington Center
Fri 02:46:03 PM 36.4667 -80.0164 84° East 342 394 23,000  Level Washington Center
Fri 02:47:03 PM 36.4792 -79.9008 82° East 336 387 23,000  Level Washington Center
Fri 02:48:03 PM 36.4894 -79.7878 84° East 331 381 23,000  Level Washington Center
Fri 02:49:01 PM 36.4994 -79.6744 84° East 331 381 23,000  Level Washington Center
Fri 02:50:02 PM 36.5100 -79.5483 84° East 336 387 23,000  Level Washington Center
Fri 02:51:03 PM 36.5203 -79.4300 84° East 336 387 23,000  Level Washington Center
Fri 02:52:03 PM 36.5322 -79.3142 83° East 331 381 23,000  Level Washington Center
Fri 02:53:02 PM 36.5417 -79.2089 84° East 326 375 23,000  Level Washington Center
Fri 02:54:01 PM 36.5531 -79.1033 82° East 321 369 23,000  Level Washington Center
Fri 02:55:01 PM 36.5625 -78.9950 84° East 316 364 23,000  Level Washington Center
Fri 02:56:02 PM 36.5719 -78.8869 84° East 309 356 23,000  Level Washington Center
Fri 02:57:03 PM 36.5811 -78.7786 84° East 309 356 23,000 -151 Level Washington Center
Fri 02:58:01 PM 36.5903 -78.6678 84° East 309 356 22,700 -1,008 Descending Washington Center
Fri 02:59:02 PM 36.5994 -78.5542 84° East 314 361 21,000 -1,721 Descending Washington Center
Fri 03:00:03 PM 36.6125 -78.4358 82° East 332 382 19,200 -1,210 Descending Washington Center
Fri 03:01:01 PM 36.6236 -78.3247 83° East 332 382 18,600 -605 Descending Washington Center
Fri 03:02:02 PM 36.6344 -78.2114 83° East 322 371 18,000 -541 Descending Washington Center
Fri 03:03:03 PM 36.6431 -78.0950 85° East 333 383 17,500 -605 Descending Washington Center
Fri 03:04:01 PM 36.6539 -77.9739 84° East 339 390 16,800 -814 Descending Washington Center
Fri 03:05:01 PM 36.6667 -77.8550 82° East 344 396 15,900 -885 Descending Washington Center
Fri 03:06:03 PM 36.6750 -77.7439 85° East 351 404 15,000 -934 Descending Washington Center
Fri 03:07:03 PM 36.6875 -77.6225 83° East 351 404 14,000 -1,008 Descending Washington Center
Fri 03:08:02 PM 36.6981 -77.4986 84° East 351 404 13,000 -1,050 Descending Washington Center
Fri 03:09:03 PM 36.7081 -77.3769 84° East 351 404 11,900 -1,367 Descending Washington Center
Fri 03:09:21 PM 36.7111 -77.3278 86° East 353 406 11,200 -1,700 Descending Washington Center
Fri 03:10:03 PM 36.7181 -77.2633 82° East 338 389 10,200 -1,467 Descending Washington Center
Fri 03:10:51 PM 36.7278 -77.1622 83° East 309 356 9,000 -1,241 Descending Washington Center
Fri 03:11:01 PM 36.7300 -77.1547 70° East 326 375 9,000  Level Washington Center
Fri 03:11:52 PM 36.7375 -77.0536 85° East 316 364 9,000  Level Washington Center
Fri 03:12:01 PM 36.7378 -77.0458 87° East 320 368 9,000  Level Washington Center
Fri 03:12:54 PM 36.7450 -76.9450 85° East 317 365 9,000  Level Washington Center
Fri 03:13:03 PM 36.7453 -76.9347 88° East 320 368 9,000 -627 Level Washington Center
Fri 03:14:01 PM 36.7294 -76.8436 102° East 303 349 8,300 -1,017 Descending Washington Center
Fri 03:15:01 PM 36.6697 -76.7625 133° Southeast 277 319 7,000 -639 Descending Washington Center
Fri 03:16:03 PM 36.6225 -76.6892 129° Southeast 277 319 7,000  Level Washington Center
Fri 03:16:30 PM 36.6167 -76.6453 99° East 298 343 7,000  Level Washington Center
Fri 03:17:03 PM 36.6108 -76.5881 97° East 267 307 7,000  Level Washington Center
Fri 03:17:18 PM 36.6111 -76.5675 89° East 300 345 7,000  Level Washington Center
Fri 03:18:01 PM 36.6075 -76.4847 93° East 281 323 7,000  Level Washington Center
Fri 03:18:16 PM 36.6036 -76.4586 101° East 300 345 7,000  Level Washington Center
Fri 03:19:01 PM 36.6000 -76.3811 93° East 291 335 7,000  Level Washington Center
Fri 03:19:26 PM 36.5939 -76.3475 103° East 297 342 7,000  Level Washington Center
Fri 03:20:20 PM 36.5903 -76.2542 93° East 298 343 7,000  Level Washington Center
Fri 03:21:27 PM 36.5969 -76.1431 86° East 287 330 7,000  Level Washington Center
Fri 03:22:21 PM 36.6350 -76.0656 59° Northeast 299 344 7,000 -678 Level Washington Center
Fri 03:23:22 PM 36.6750 -75.9856 58° Northeast 268 308 5,700 -1,636 Descending Washington Center
Fri 03:24:22 PM 36.7250 -75.9444 33° Northeast 193 222 3,700 -1,636 Descending Washington Center
Fri 03:25:23 PM 36.7772 -75.9472 358° North 166 191 2,400 -992 Descending Washington Center
Fri 03:26:29 PM 36.8250 -75.9708 338° Northwest 177 204 1,600 -938 Descending Washington Center
Fri 03:27:31 PM 36.8397 -76.0122 294° West 137 158 400 -1,161 Descending Washington Center

Login

Don't have an account? Register now (free) for customized features, flight alerts, and more!